createdAt,value
2022-12-16T00:02:25.326Z,4.10
2022-12-16T00:04:52.091Z,4.00
2022-12-16T00:07:18.979Z,3.90
2022-12-16T00:09:45.664Z,4.00
2022-12-16T00:12:12.510Z,4.10
2022-12-16T00:14:39.439Z,4.00
2022-12-16T00:17:06.230Z,3.80
2022-12-16T00:19:32.968Z,3.60
2022-12-16T00:21:59.926Z,3.50
2022-12-16T00:24:26.640Z,3.50
2022-12-16T00:26:53.393Z,3.60
2022-12-16T00:29:20.305Z,3.70
2022-12-16T00:31:48.248Z,3.70
2022-12-16T00:34:15.974Z,3.80
2022-12-16T00:36:43.552Z,3.70
2022-12-16T00:39:11.243Z,3.90
2022-12-16T00:41:37.993Z,3.90
2022-12-16T00:44:05.144Z,3.80
2022-12-16T00:46:31.909Z,3.70
2022-12-16T00:48:58.705Z,3.70
2022-12-16T00:51:26.174Z,3.80
2022-12-16T00:53:52.835Z,3.70
2022-12-16T00:56:21.016Z,3.80
2022-12-16T00:58:49.201Z,3.80
2022-12-16T01:01:15.939Z,3.90
2022-12-16T01:03:43.023Z,3.80
2022-12-16T01:06:15.328Z,3.80
2022-12-16T01:08:48.738Z,3.80
2022-12-16T01:11:17.241Z,3.80
2022-12-16T01:13:44.444Z,3.60
2022-12-16T01:16:11.186Z,3.60
2022-12-16T01:18:38.301Z,3.70
2022-12-16T01:21:07.135Z,3.70
2022-12-16T01:23:35.868Z,3.60
2022-12-16T01:26:03.261Z,3.50
2022-12-16T01:28:30.766Z,3.50
2022-12-16T01:31:01.743Z,3.50
2022-12-16T01:33:31.443Z,3.50
2022-12-16T01:36:04.159Z,3.60
2022-12-16T01:38:30.945Z,3.60
2022-12-16T01:40:57.891Z,3.80
2022-12-16T01:43:29.141Z,3.80
2022-12-16T01:46:10.097Z,3.80
2022-12-16T01:49:00.582Z,3.70
2022-12-16T01:51:37.802Z,3.60
2022-12-16T01:54:09.793Z,3.50
2022-12-16T01:56:41.626Z,3.50
2022-12-16T01:59:09.004Z,3.40
2022-12-16T02:01:35.963Z,3.30
2022-12-16T02:04:04.782Z,3.30
2022-12-16T02:06:31.997Z,3.50
2022-12-16T02:09:02.465Z,3.40
2022-12-16T02:12:15.905Z,3.40
2022-12-16T02:15:03.387Z,3.50
2022-12-16T02:17:35.956Z,3.70
2022-12-16T02:20:05.651Z,3.60
2022-12-16T02:23:05.070Z,3.70
2022-12-16T02:25:44.398Z,3.60
2022-12-16T02:28:11.463Z,3.70
2022-12-16T02:31:00.528Z,3.60
2022-12-16T02:33:58.946Z,3.70
2022-12-16T02:36:33.680Z,3.80
2022-12-16T02:39:08.587Z,3.80
2022-12-16T02:41:57.906Z,3.90
2022-12-16T02:44:43.708Z,3.90
2022-12-16T02:47:10.405Z,4.00
2022-12-16T02:49:46.322Z,4.00
2022-12-16T02:52:14.237Z,3.80
2022-12-16T02:54:42.104Z,3.60
2022-12-16T02:57:26.945Z,3.60
2022-12-16T03:00:07.232Z,3.60
2022-12-16T03:02:59.456Z,3.80
2022-12-16T03:05:30.042Z,3.90
2022-12-16T03:08:00.403Z,4.00
2022-12-16T03:10:32.045Z,4.10
2022-12-16T03:13:01.673Z,3.90
2022-12-16T03:15:33.000Z,4.00
2022-12-16T03:18:01.556Z,4.10
2022-12-16T03:20:35.756Z,4.20
2022-12-16T03:23:10.046Z,4.20
2022-12-16T03:25:41.199Z,4.20
2022-12-16T03:28:25.646Z,4.30
2022-12-16T03:31:01.345Z,4.30
2022-12-16T03:33:40.054Z,4.30
2022-12-16T03:36:18.442Z,4.20
2022-12-16T03:38:46.830Z,4.20
2022-12-16T03:41:16.202Z,4.20
2022-12-16T03:43:43.780Z,4.30
2022-12-16T03:46:11.923Z,4.40
2022-12-16T03:48:46.347Z,4.30
2022-12-16T03:51:12.999Z,4.20
2022-12-16T03:53:40.015Z,4.20
2022-12-16T03:56:06.995Z,4.20
2022-12-16T03:58:35.311Z,4.20
2022-12-16T04:01:02.167Z,4.20
2022-12-16T04:03:28.989Z,4.10
2022-12-16T04:05:55.781Z,4.10
2022-12-16T04:08:22.623Z,4.10
2022-12-16T04:11:11.925Z,4.20
2022-12-16T04:13:57.349Z,4.30
2022-12-16T04:16:46.110Z,4.40
2022-12-16T04:19:42.493Z,4.40
2022-12-16T04:22:32.261Z,4.30
2022-12-16T04:25:03.746Z,4.30
2022-12-16T04:27:30.381Z,4.20
2022-12-16T04:30:15.587Z,4.20
2022-12-16T04:33:01.231Z,4.30
2022-12-16T04:35:46.598Z,4.30
2022-12-16T04:38:31.858Z,4.50
2022-12-16T04:41:17.315Z,4.40
2022-12-16T04:44:02.819Z,4.40
2022-12-16T04:46:48.602Z,4.40
2022-12-16T04:49:33.794Z,4.50
2022-12-16T04:52:19.617Z,4.60
2022-12-16T04:55:04.783Z,4.60
2022-12-16T04:57:50.322Z,4.50
2022-12-16T05:00:35.741Z,4.50
2022-12-16T05:03:21.172Z,4.50
2022-12-16T05:06:06.439Z,4.50
2022-12-16T05:08:52.081Z,4.50
2022-12-16T05:11:37.405Z,4.60
2022-12-16T05:14:23.510Z,4.50
2022-12-16T05:17:08.893Z,4.60
2022-12-16T05:19:54.569Z,4.60
2022-12-16T05:22:39.865Z,4.50
2022-12-16T05:25:26.075Z,4.50
2022-12-16T05:28:12.248Z,4.50
2022-12-16T05:30:57.654Z,4.50
2022-12-16T05:33:43.260Z,4.50
2022-12-16T05:36:28.834Z,4.50
2022-12-16T05:39:14.229Z,4.40
2022-12-16T05:42:00.098Z,4.40
2022-12-16T05:44:45.393Z,4.50
2022-12-16T05:47:31.875Z,4.50
2022-12-16T05:50:17.231Z,4.60
2022-12-16T05:53:14.118Z,4.60
2022-12-16T05:55:59.507Z,4.50
2022-12-16T05:58:45.522Z,4.50
2022-12-16T06:01:31.082Z,4.50
2022-12-16T06:04:17.971Z,4.50
2022-12-16T06:07:03.517Z,4.50
2022-12-16T06:09:54.741Z,4.60
2022-12-16T06:12:41.887Z,4.60
2022-12-16T06:15:28.046Z,4.70
2022-12-16T06:18:13.553Z,4.60
2022-12-16T06:20:58.622Z,4.70
2022-12-16T06:23:44.251Z,4.70
2022-12-16T06:26:29.646Z,4.70
2022-12-16T06:29:15.117Z,4.30
2022-12-16T06:32:00.904Z,4.00
2022-12-16T06:34:47.928Z,3.90
2022-12-16T06:37:33.330Z,3.80
2022-12-16T06:40:18.743Z,3.70
2022-12-16T06:43:04.243Z,3.80
2022-12-16T06:45:49.886Z,4.00
2022-12-16T06:48:35.270Z,4.10
2022-12-16T06:51:20.740Z,4.10
2022-12-16T06:54:06.155Z,4.00
2022-12-16T06:56:51.659Z,3.90
2022-12-16T06:59:36.805Z,3.80
2022-12-16T07:02:22.185Z,3.70
2022-12-16T07:05:07.413Z,3.60
2022-12-16T07:07:52.810Z,3.50
2022-12-16T07:10:38.288Z,3.60
2022-12-16T07:13:23.722Z,3.60
2022-12-16T07:16:09.268Z,3.60
2022-12-16T07:18:54.567Z,3.50
2022-12-16T07:21:40.456Z,3.60
2022-12-16T07:24:25.989Z,3.60
2022-12-16T07:27:11.718Z,3.60
2022-12-16T07:29:57.041Z,3.90
2022-12-16T07:32:42.549Z,4.00
2022-12-16T07:35:27.940Z,4.20
2022-12-16T07:38:13.511Z,4.40
2022-12-16T07:40:58.751Z,4.40
2022-12-16T07:43:43.864Z,4.30
2022-12-16T07:46:29.156Z,4.20
2022-12-16T07:49:14.526Z,4.40
2022-12-16T07:52:00.715Z,4.50
2022-12-16T07:54:46.190Z,4.50
2022-12-16T07:57:31.526Z,4.50
2022-12-16T08:00:17.225Z,4.70
2022-12-16T08:03:02.786Z,4.80
2022-12-16T08:05:48.380Z,4.90
2022-12-16T08:08:33.792Z,5.00
2022-12-16T08:11:19.355Z,5.00
2022-12-16T08:14:04.482Z,5.00
2022-12-16T08:16:49.913Z,5.00
2022-12-16T08:19:35.202Z,5.00
2022-12-16T08:22:20.769Z,5.00
2022-12-16T08:25:06.158Z,5.00
2022-12-16T08:27:51.619Z,5.00
2022-12-16T08:30:37.112Z,5.00
2022-12-16T08:33:22.314Z,5.10
2022-12-16T08:36:07.794Z,5.10
2022-12-16T08:38:54.353Z,5.20
2022-12-16T08:41:41.461Z,5.10
2022-12-16T08:44:26.619Z,5.20
2022-12-16T08:47:12.108Z,5.20
2022-12-16T08:50:01.472Z,5.20
2022-12-16T08:52:48.361Z,5.20
2022-12-16T08:55:33.872Z,5.20
2022-12-16T08:58:19.081Z,5.30
2022-12-16T09:01:07.363Z,5.40
2022-12-16T09:03:54.438Z,5.40
2022-12-16T09:06:43.347Z,5.30
2022-12-16T09:09:29.110Z,5.40
2022-12-16T09:12:14.807Z,5.50
2022-12-16T09:15:00.224Z,5.60
2022-12-16T09:17:45.842Z,5.50
2022-12-16T09:20:31.286Z,5.50
2022-12-16T09:23:20.822Z,5.70
2022-12-16T09:26:06.183Z,5.80
2022-12-16T09:28:51.483Z,5.80
2022-12-16T09:31:36.999Z,5.80
2022-12-16T09:34:22.282Z,5.80
2022-12-16T09:37:07.776Z,5.80
2022-12-16T09:39:53.014Z,5.80
2022-12-16T09:43:01.637Z,5.80
2022-12-16T09:45:55.874Z,5.90
2022-12-16T09:49:04.930Z,5.80
2022-12-16T09:51:50.982Z,5.80
2022-12-16T09:54:40.636Z,5.70
2022-12-16T09:57:26.590Z,5.80
2022-12-16T10:00:15.442Z,5.80
2022-12-16T10:03:06.697Z,5.90
2022-12-16T10:06:10.764Z,5.90
2022-12-16T10:09:02.693Z,5.80
2022-12-16T10:11:59.726Z,5.90
2022-12-16T10:14:54.882Z,5.90
2022-12-16T10:17:44.237Z,5.90
2022-12-16T10:20:44.170Z,5.80
2022-12-16T10:23:33.611Z,5.80
2022-12-16T10:26:28.201Z,5.90
2022-12-16T10:29:36.812Z,5.80
2022-12-16T10:32:34.467Z,5.80
2022-12-16T10:35:20.764Z,5.80
2022-12-16T10:38:07.497Z,5.70
2022-12-16T10:40:54.361Z,5.70
2022-12-16T10:43:57.305Z,5.80
2022-12-16T10:46:47.596Z,6.00
2022-12-16T10:49:34.944Z,6.40
2022-12-16T10:52:22.356Z,5.90
2022-12-16T10:55:15.283Z,5.80
2022-12-16T10:58:14.746Z,5.70
2022-12-16T11:01:03.437Z,5.70
2022-12-16T11:03:54.518Z,5.80
2022-12-16T11:06:57.187Z,5.70
2022-12-16T11:09:50.888Z,5.80
2022-12-16T11:12:50.771Z,5.80
2022-12-16T11:15:46.037Z,5.80
2022-12-16T11:18:40.458Z,5.70
2022-12-16T11:21:33.516Z,5.70
2022-12-16T11:24:31.944Z,5.70
2022-12-16T11:27:44.708Z,5.80
2022-12-16T11:30:41.413Z,5.80
2022-12-16T11:33:46.568Z,5.90
2022-12-16T11:36:34.386Z,6.00
2022-12-16T11:39:20.856Z,6.10
2022-12-16T11:42:09.020Z,6.00
2022-12-16T11:45:11.089Z,6.20
2022-12-16T11:48:09.393Z,6.20
2022-12-16T11:50:59.439Z,6.20
2022-12-16T11:54:04.634Z,6.10
2022-12-16T11:56:55.111Z,6.00
2022-12-16T12:00:00.958Z,6.10
2022-12-16T12:02:57.745Z,6.00
2022-12-16T12:06:10.802Z,5.90
2022-12-16T12:09:21.602Z,5.90
2022-12-16T12:12:11.135Z,5.90
2022-12-16T12:14:56.603Z,6.10
2022-12-16T12:17:50.811Z,6.20
2022-12-16T12:20:45.243Z,6.30
2022-12-16T12:23:35.023Z,6.30
2022-12-16T12:26:38.939Z,6.40
2022-12-16T12:29:46.739Z,6.40
2022-12-16T12:32:47.316Z,6.30
2022-12-16T12:35:42.003Z,6.30
2022-12-16T12:38:38.154Z,6.20
2022-12-16T12:41:37.295Z,6.20
2022-12-16T12:44:48.605Z,6.30
2022-12-16T12:47:36.290Z,6.40
2022-12-16T12:50:46.672Z,6.40
2022-12-16T12:53:50.505Z,6.20
2022-12-16T12:57:11.099Z,5.90
2022-12-16T13:00:04.107Z,5.60
2022-12-16T13:03:06.771Z,5.50
2022-12-16T13:05:56.178Z,5.70
2022-12-16T13:08:56.472Z,5.90
2022-12-16T13:11:42.432Z,6.10
2022-12-16T13:14:49.351Z,6.30
2022-12-16T13:17:37.890Z,6.40
2022-12-16T13:20:45.314Z,6.40
2022-12-16T13:24:00.815Z,6.50
2022-12-16T13:26:49.124Z,6.60
2022-12-16T13:29:42.310Z,6.60
2022-12-16T13:32:42.881Z,6.70
2022-12-16T13:35:28.415Z,6.60
2022-12-16T13:38:20.495Z,6.60
2022-12-16T13:41:24.164Z,6.60
2022-12-16T13:44:14.143Z,6.60
2022-12-16T13:47:02.744Z,6.50
2022-12-16T13:50:10.251Z,6.30
2022-12-16T13:53:15.077Z,6.10
2022-12-16T13:56:19.428Z,6.00
2022-12-16T13:59:09.503Z,5.90
2022-12-16T14:02:04.073Z,5.80
2022-12-16T14:04:53.701Z,5.70
2022-12-16T14:07:41.780Z,5.70
2022-12-16T14:10:48.069Z,5.60
2022-12-16T14:13:53.506Z,5.80
2022-12-16T14:16:57.461Z,5.90
2022-12-16T14:19:51.782Z,5.70
2022-12-16T14:22:46.274Z,5.60
2022-12-16T14:25:39.997Z,5.60
2022-12-16T14:28:34.170Z,5.60
2022-12-16T14:31:32.720Z,5.80
2022-12-16T14:34:21.086Z,5.90
2022-12-16T14:37:06.916Z,5.80
2022-12-16T14:39:57.942Z,5.80
2022-12-16T14:42:48.499Z,5.80
2022-12-16T14:45:47.543Z,5.60
2022-12-16T14:48:50.392Z,5.60
2022-12-16T14:51:47.101Z,5.50
2022-12-16T14:54:53.359Z,5.50
2022-12-16T14:57:44.121Z,5.60
2022-12-16T15:00:37.139Z,5.50
2022-12-16T15:03:41.508Z,5.40
2022-12-16T15:06:44.947Z,5.40
2022-12-16T15:09:45.388Z,5.40
2022-12-16T15:12:32.798Z,5.40
2022-12-16T15:15:19.867Z,5.50
2022-12-16T15:18:12.422Z,5.70
2022-12-16T15:21:10.704Z,6.00
2022-12-16T15:24:03.664Z,6.10
2022-12-16T15:26:51.499Z,6.20
2022-12-16T15:29:56.137Z,6.10
2022-12-16T15:32:44.286Z,6.20
2022-12-16T15:35:30.212Z,6.20
2022-12-16T15:38:15.740Z,6.30
2022-12-16T15:41:01.202Z,6.40
2022-12-16T15:43:57.373Z,6.50
2022-12-16T15:46:44.526Z,6.60
2022-12-16T15:49:38.886Z,6.60
2022-12-16T15:52:56.777Z,6.50
2022-12-16T15:55:53.404Z,6.10
2022-12-16T15:58:49.683Z,5.90
2022-12-16T16:01:40.429Z,5.70
2022-12-16T16:04:48.026Z,5.90
2022-12-16T16:07:39.494Z,6.00
2022-12-16T16:10:36.850Z,6.20
2022-12-16T16:13:22.727Z,6.20
2022-12-16T16:16:08.820Z,6.40
2022-12-16T16:18:54.410Z,6.40
2022-12-16T16:21:40.337Z,6.20
2022-12-16T16:24:26.288Z,6.10
2022-12-16T16:27:12.828Z,6.10
2022-12-16T16:29:58.499Z,6.10
2022-12-16T16:32:43.947Z,6.00
2022-12-16T16:35:29.400Z,6.00
2022-12-16T16:38:18.379Z,6.00
2022-12-16T16:41:04.494Z,5.90
2022-12-16T16:43:49.905Z,5.90
2022-12-16T16:46:56.345Z,6.10
2022-12-16T16:49:53.710Z,6.00
2022-12-16T16:52:42.134Z,6.10
2022-12-16T16:55:36.939Z,5.90
2022-12-16T16:58:42.233Z,6.00
2022-12-16T17:01:31.801Z,6.20
2022-12-16T17:04:17.754Z,6.10
2022-12-16T17:07:03.223Z,6.00
2022-12-16T17:09:48.702Z,6.00
2022-12-16T17:12:46.235Z,6.10
2022-12-16T17:15:40.789Z,6.00
2022-12-16T17:18:26.226Z,6.00
2022-12-16T17:21:12.170Z,6.10
2022-12-16T17:23:57.102Z,6.30
2022-12-16T17:26:43.277Z,6.40
2022-12-16T17:29:39.875Z,6.40
2022-12-16T17:32:26.069Z,6.50
2022-12-16T17:35:11.540Z,6.40
2022-12-16T17:37:57.092Z,6.40
2022-12-16T17:40:43.089Z,6.40
2022-12-16T17:43:28.203Z,6.40
2022-12-16T17:46:28.647Z,6.50
2022-12-16T17:49:26.740Z,6.60
2022-12-16T17:52:12.122Z,6.60
2022-12-16T17:54:57.643Z,6.70
2022-12-16T17:57:42.797Z,6.70
2022-12-16T18:00:28.797Z,6.70
2022-12-16T18:03:14.249Z,6.70
2022-12-16T18:05:59.927Z,6.70
2022-12-16T18:08:45.267Z,6.80
2022-12-16T18:11:34.590Z,6.50
2022-12-16T18:14:22.708Z,6.60
2022-12-16T18:17:08.181Z,6.60
2022-12-16T18:19:53.502Z,6.60
2022-12-16T18:22:49.424Z,6.60
2022-12-16T18:25:35.018Z,6.70
2022-12-16T18:28:20.528Z,6.60
2022-12-16T18:31:05.927Z,6.60
2022-12-16T18:33:51.912Z,6.70
2022-12-16T18:36:36.921Z,6.60
2022-12-16T18:39:22.878Z,6.60
2022-12-16T18:42:19.010Z,6.50
2022-12-16T18:45:04.629Z,6.50
2022-12-16T18:47:50.065Z,6.50
2022-12-16T18:50:38.201Z,6.60
2022-12-16T18:53:24.526Z,6.60
2022-12-16T18:56:24.752Z,6.40
2022-12-16T18:59:10.863Z,6.30
2022-12-16T19:01:56.568Z,6.20
2022-12-16T19:04:41.942Z,6.20
2022-12-16T19:07:27.125Z,6.40
2022-12-16T19:10:12.427Z,6.40
2022-12-16T19:12:57.969Z,6.40
2022-12-16T19:15:43.214Z,6.40
2022-12-16T19:18:30.463Z,6.50
2022-12-16T19:21:16.686Z,6.50
2022-12-16T19:24:02.074Z,6.60
2022-12-16T19:26:47.889Z,6.60
2022-12-16T19:29:33.587Z,6.50
2022-12-16T19:32:18.862Z,6.50
2022-12-16T19:35:04.515Z,6.60
2022-12-16T19:37:50.541Z,6.60
2022-12-16T19:40:35.959Z,6.70
2022-12-16T19:43:21.497Z,6.60
2022-12-16T19:46:11.791Z,6.70
2022-12-16T19:48:56.893Z,6.50
2022-12-16T19:51:42.358Z,6.60
2022-12-16T19:54:27.761Z,6.70
2022-12-16T19:57:13.450Z,6.70
2022-12-16T19:59:58.744Z,6.80
2022-12-16T20:02:44.869Z,6.80
2022-12-16T20:05:30.459Z,6.90
2022-12-16T20:08:15.805Z,6.90
2022-12-16T20:11:01.245Z,6.90
2022-12-16T20:13:46.743Z,6.90
2022-12-16T20:16:32.144Z,6.90
2022-12-16T20:19:18.161Z,6.90
2022-12-16T20:22:06.854Z,6.90
2022-12-16T20:24:56.322Z,6.90
2022-12-16T20:27:42.189Z,6.90
2022-12-16T20:30:28.985Z,6.90
2022-12-16T20:33:14.441Z,6.80
2022-12-16T20:35:59.923Z,6.80
2022-12-16T20:38:45.298Z,6.90
2022-12-16T20:41:31.387Z,6.80
2022-12-16T20:44:16.854Z,6.90
2022-12-16T20:47:02.266Z,6.90
2022-12-16T20:49:47.696Z,6.80
2022-12-16T20:52:33.093Z,6.80
2022-12-16T20:55:18.489Z,6.80
2022-12-16T20:58:04.171Z,6.90
2022-12-16T21:00:49.639Z,6.90
2022-12-16T21:03:35.132Z,6.90
2022-12-16T21:06:23.061Z,6.90
2022-12-16T21:09:08.358Z,6.90
2022-12-16T21:11:53.859Z,6.80
2022-12-16T21:14:41.786Z,6.90
2022-12-16T21:17:27.282Z,6.90
2022-12-16T21:20:13.149Z,6.80
2022-12-16T21:22:58.538Z,6.80
2022-12-16T21:25:44.377Z,6.80
2022-12-16T21:28:31.186Z,6.80
2022-12-16T21:31:17.965Z,6.70
2022-12-16T21:34:03.374Z,6.70
2022-12-16T21:36:48.890Z,6.80
2022-12-16T21:39:34.484Z,6.80
2022-12-16T21:42:19.943Z,6.80
2022-12-16T21:45:05.074Z,6.80
2022-12-16T21:47:50.571Z,6.80
2022-12-16T21:50:36.030Z,6.70
2022-12-16T21:53:21.340Z,6.80
2022-12-16T21:56:11.243Z,6.70
2022-12-16T21:58:57.071Z,6.70
2022-12-16T22:01:42.404Z,6.70
2022-12-16T22:04:28.255Z,6.70
2022-12-16T22:07:13.645Z,6.70
2022-12-16T22:09:59.416Z,6.60
2022-12-16T22:12:44.847Z,6.60
2022-12-16T22:15:30.231Z,6.60
2022-12-16T22:18:15.717Z,6.70
2022-12-16T22:21:14.916Z,6.70
2022-12-16T22:24:00.284Z,6.70
2022-12-16T22:26:45.793Z,6.70
2022-12-16T22:29:31.231Z,6.70
2022-12-16T22:32:17.614Z,6.70
2022-12-16T22:35:03.228Z,6.60
2022-12-16T22:37:59.611Z,6.60
2022-12-16T22:40:44.629Z,6.40
2022-12-16T22:43:30.110Z,6.30
2022-12-16T22:46:19.672Z,6.30
2022-12-16T22:49:06.238Z,6.10
2022-12-16T22:51:51.720Z,6.10
2022-12-16T22:54:37.481Z,6.10
2022-12-16T22:57:22.979Z,6.10
2022-12-16T23:00:08.795Z,6.00
2022-12-16T23:02:54.935Z,5.80
2022-12-16T23:05:40.443Z,5.70
2022-12-16T23:08:25.850Z,5.70
2022-12-16T23:11:18.682Z,5.60
2022-12-16T23:14:14.728Z,5.50
2022-12-16T23:17:00.290Z,5.40
2022-12-16T23:19:45.836Z,5.30
2022-12-16T23:22:31.352Z,5.30
2022-12-16T23:25:16.522Z,5.30
2022-12-16T23:28:02.208Z,5.40
2022-12-16T23:30:47.653Z,5.20
2022-12-16T23:33:33.178Z,5.10
2022-12-16T23:36:18.409Z,5.00
2022-12-16T23:39:03.649Z,4.90
2022-12-16T23:41:49.061Z,4.90
2022-12-16T23:44:34.706Z,4.90
2022-12-16T23:47:20.004Z,5.00
2022-12-16T23:50:06.436Z,4.80
2022-12-16T23:52:52.986Z,4.90
2022-12-16T23:55:41.880Z,4.80
2022-12-16T23:58:28.395Z,4.80
